Dresden, KS (67635)

1:02 AM CDT on September 01, 2016 (GMT -0500)
Selden, KS | | Change Station

Elev 2858 ft 39.54 °N, 100.55 °W | Updated 11 seconds ago

Fog
Fog
64.6 °F
Feels Like 64.6 °F
N
2.0
Wind Variable Wind from SE
Gusts 3.0 mph

Today
High -- | Low -- °F
--% Chance of Precip.
Yesterday
High -- | Low -- °F
Precip. -- in
Pressure 30.17 in
Visibility 0.2 miles
Clouds
Dew Point 63 °F
Humidity 95%
Rainfall 0.00 in
Snow Depth Not available.
7:10 AM 8:11 PM
Waning Crescent, 0% visible
METAR KHLC 010553Z AUTO 00000KT 1/4SM FG VV003 16/16 A3021 RMK AO2 SLP214 60000 T01610156 10222 20161 402610161 51005 TSNO
Pressure 30.17 in
Visibility 0.2 miles
Clouds
Dew Point 63 °F
Humidity 95%
Rainfall 0.00 in
Snow Depth Not available.
7:10 AM 8:11 PM
Waning Crescent, 0% visible
METAR KHLC 010553Z AUTO 00000KT 1/4SM FG VV003 16/16 A3021 RMK AO2 SLP214 60000 T01610156 10222 20161 402610161 51005 TSNO

10-Day Weather Forecast

Almanac

Astronomy

Sep. 01, 2016 Rise Set
Actual Time
Civil Twilight
Nautical Twilight
Astronomical Twilight
Moon
Length of Visible Light
Length of Day
Tomorrow will be .
, % of the Moon is Illuminated

Today's Extremes

State Highs State Lows

Community

WunderPhotos

Upload Photos

1,936,313 photos uploaded!

WunderBlog® & News

Nearby

Air Quality

  Air Quality AQ Index Pollutant
Not available.

Snow Depth

Station Depth Elevation

Earthquake Activity

City Distance Mag. Time & Date
Minimum magnitude displayed is 2.5.

Coastal Water Temperatures

Place Temperature

Stations

Nearby Weather Stations

Station Location Temp. Windchill Dew Point Humidity Wind Precip. Elev Updated Type
                   

Watches & Warnings

There are currently no watches in effect.